Tc Majestic — 3EYC4 — position and weather

sailwx.info

Track history (hours):
 
Tides and Currents Weather Stations Pressure Air Temp Water Temp Dewpoint Dewpoint Depression Visibility Wind Speed Wind Dir Waves Ship Positions

Tc Majestic

Last reported at 2018-Jun-15 19:44 UTC. Time now 2018-Jun-20 03:13 UTC.
Position N 40°48' E 028°31'.

Length 89 m; draft 5.6 m.

Type: Ship. MMSI: 355279000.

Date/timePositionNaut miles runAvg speedWind from/ knotsBaromVisibWave heightAir tempDewpointWater temp
2018-Jun-15 19:44N 40°48' E 028°31'2 9.1
2018-Jun-15 19:30N 40°48' E 028°28'130 8.2
2018-Jun-15 03:41N 39°53' E 025°52'1 8.2
2018-Jun-15 03:30N 39°53' E 025°51'48 8.5
2018-Jun-14 21:50N 39°39' E 024°50'3 9.6
2018-Jun-14 21:30N 39°39' E 024°46'5 9.6
2018-Jun-14 21:00N 39°37' E 024°40'5 9.6
2018-Jun-14 20:30N 39°36' E 024°34'5 9.5
2018-Jun-14 20:00N 39°35' E 024°28'5 9.3
2018-Jun-14 19:30N 39°34' E 024°22'5 9.4
2018-Jun-14 18:56N 39°33' E 024°15'4 9.5
2018-Jun-14 18:30N 39°32' E 024°10'  
2018-Jun-07 15:05N 37°53' E 025°12'1 8.6
2018-Jun-07 14:59N 37°52' E 025°13'4 8.4
2018-Jun-07 14:30N 37°49' E 025°16'4 8.3
2018-Jun-07 13:59N 37°46' E 025°20'4 8.3
2018-Jun-07 13:29N 37°43' E 025°23'4 8.2
2018-Jun-07 13:00N 37°40' E 025°26'4 8.2
2018-Jun-07 12:30N 37°36' E 025°30'4 8.2
2018-Jun-07 12:00N 37°33' E 025°33'4 8.6
2018-Jun-07 11:30N 37°30' E 025°36'5 8.9
2018-Jun-07 11:00N 37°26' E 025°39'5 9.0
2018-Jun-07 10:23N 37°22' E 025°44'3 9.0
2018-Jun-07 10:00N 37°19' E 025°47'5 9.1
2018-Jun-07 09:30N 37°16' E 025°51'  
Track history (hours):
 
Tides and Currents Weather Stations Pressure Air Temp Water Temp Dewpoint Dewpoint Depression Visibility Wind Speed Wind Dir Waves Ship Positions

Tc Majestic

Last reported at 2018-Jun-15 19:44 UTC. Time now 2018-Jun-20 03:13 UTC.
Position N 40°48' E 028°31'.

Length 89 m; draft 5.6 m.

Type: Ship. MMSI: 355279000.

Date/timePositionNaut miles runAvg speedWind from/ knotsBaromVisibWave heightAir tempDewpointWater temp
2018-Jun-15 19:44N 40°48' E 028°31'2 9.1
2018-Jun-15 19:30N 40°48' E 028°28'130 8.2
2018-Jun-15 03:41N 39°53' E 025°52'1 8.2
2018-Jun-15 03:30N 39°53' E 025°51'48 8.5
2018-Jun-14 21:50N 39°39' E 024°50'3 9.6
2018-Jun-14 21:30N 39°39' E 024°46'5 9.6
2018-Jun-14 21:00N 39°37' E 024°40'5 9.6
2018-Jun-14 20:30N 39°36' E 024°34'5 9.5
2018-Jun-14 20:00N 39°35' E 024°28'5 9.3
2018-Jun-14 19:30N 39°34' E 024°22'5 9.4
2018-Jun-14 18:56N 39°33' E 024°15'4 9.5
2018-Jun-14 18:30N 39°32' E 024°10'  
2018-Jun-07 15:05N 37°53' E 025°12'1 8.6
2018-Jun-07 14:59N 37°52' E 025°13'4 8.4
2018-Jun-07 14:30N 37°49' E 025°16'4 8.3
2018-Jun-07 13:59N 37°46' E 025°20'4 8.3
2018-Jun-07 13:29N 37°43' E 025°23'4 8.2
2018-Jun-07 13:00N 37°40' E 025°26'4 8.2
2018-Jun-07 12:30N 37°36' E 025°30'4 8.2
2018-Jun-07 12:00N 37°33' E 025°33'4 8.6
2018-Jun-07 11:30N 37°30' E 025°36'5 8.9
2018-Jun-07 11:00N 37°26' E 025°39'5 9.0
2018-Jun-07 10:23N 37°22' E 025°44'3 9.0
2018-Jun-07 10:00N 37°19' E 025°47'5 9.1
2018-Jun-07 09:30N 37°16' E 025°51'  

Dump ship's entire track history